sensor_id;sensor_type;location;lat;lon;timestamp;P1;durP1;ratioP1;P2;durP2;ratioP2
32106;SDS011;18622;51.998;10.440;2023-05-10T02:45:40;5.80;;;4.42;;
32106;SDS011;18622;51.998;10.440;2023-05-10T02:48:09;9.65;;;5.10;;
32106;SDS011;18622;51.998;10.440;2023-05-10T02:50:37;5.73;;;4.73;;
32106;SDS011;18622;51.998;10.440;2023-05-10T02:53:11;7.12;;;4.30;;
32106;SDS011;18622;51.998;10.440;2023-05-10T02:55:45;15.10;;;5.20;;
32106;SDS011;18622;51.998;10.440;2023-05-10T02:58:16;10.95;;;5.65;;
32106;SDS011;18622;51.998;10.440;2023-05-10T03:00:45;15.05;;;5.25;;
32106;SDS011;18622;51.998;10.440;2023-05-10T03:03:13;9.70;;;4.80;;
32106;SDS011;18622;51.998;10.440;2023-05-10T03:05:41;7.37;;;4.97;;
32106;SDS011;18622;51.998;10.440;2023-05-10T03:08:09;11.57;;;4.90;;
32106;SDS011;18622;51.998;10.440;2023-05-10T03:10:47;9.63;;;4.90;;
32106;SDS011;18622;51.998;10.440;2023-05-10T03:13:25;6.77;;;4.83;;
32106;SDS011;18622;51.998;10.440;2023-05-10T03:15:47;8.57;;;4.73;;
32106;SDS011;18622;51.998;10.440;2023-05-10T03:18:22;11.43;;;5.27;;
32106;SDS011;18622;51.998;10.440;2023-05-10T03:20:54;6.45;;;5.00;;
32106;SDS011;18622;51.998;10.440;2023-05-10T03:23:38;8.50;;;5.37;;
32106;SDS011;18622;51.998;10.440;2023-05-10T03:26:02;5.40;;;4.57;;
32106;SDS011;18622;51.998;10.440;2023-05-10T03:28:31;6.63;;;5.47;;
32106;SDS011;18622;51.998;10.440;2023-05-10T03:31:02;10.50;;;5.10;;
32106;SDS011;18622;51.998;10.440;2023-05-10T03:33:31;8.07;;;5.17;;
32106;SDS011;18622;51.998;10.440;2023-05-10T03:35:59;10.40;;;5.90;;
32106;SDS011;18622;51.998;10.440;2023-05-10T03:38:27;12.60;;;6.47;;
32106;SDS011;18622;51.998;10.440;2023-05-10T03:40:55;11.77;;;5.90;;
32106;SDS011;18622;51.998;10.440;2023-05-10T03:43:22;8.20;;;5.63;;
32106;SDS011;18622;51.998;10.440;2023-05-10T03:45:50;6.00;;;4.80;;
32106;SDS011;18622;51.998;10.440;2023-05-10T03:48:18;9.40;;;4.93;;
32106;SDS011;18622;51.998;10.440;2023-05-10T03:50:46;7.47;;;5.10;;
32106;SDS011;18622;51.998;10.440;2023-05-10T03:53:15;10.38;;;5.20;;
32106;SDS011;18622;51.998;10.440;2023-05-10T03:55:43;7.97;;;4.80;;
32106;SDS011;18622;51.998;10.440;2023-05-10T03:58:11;7.03;;;4.73;;
32106;SDS011;18622;51.998;10.440;2023-05-10T04:00:38;8.10;;;6.13;;
32106;SDS011;18622;51.998;10.440;2023-05-10T04:03:08;6.45;;;5.70;;
32106;SDS011;18622;51.998;10.440;2023-05-10T04:05:36;7.40;;;6.20;;
32106;SDS011;18622;51.998;10.440;2023-05-10T04:08:04;10.43;;;6.30;;
32106;SDS011;18622;51.998;10.440;2023-05-10T04:10:32;12.17;;;5.93;;
32106;SDS011;18622;51.998;10.440;2023-05-10T04:13:00;9.40;;;5.77;;
32106;SDS011;18622;51.998;10.440;2023-05-10T04:15:28;7.13;;;5.27;;
32106;SDS011;18622;51.998;10.440;2023-05-10T04:17:56;8.70;;;5.70;;
32106;SDS011;18622;51.998;10.440;2023-05-10T04:20:24;8.87;;;6.10;;
32106;SDS011;18622;51.998;10.440;2023-05-10T04:22:51;9.77;;;6.50;;
32106;SDS011;18622;51.998;10.440;2023-05-10T04:25:19;8.17;;;6.47;;
32106;SDS011;18622;51.998;10.440;2023-05-10T04:27:47;11.57;;;5.87;;
32106;SDS011;18622;51.998;10.440;2023-05-10T04:30:15;8.13;;;6.10;;
32106;SDS011;18622;51.998;10.440;2023-05-10T04:32:43;9.27;;;6.27;;
32106;SDS011;18622;51.998;10.440;2023-05-10T04:35:11;11.73;;;6.63;;
32106;SDS011;18622;51.998;10.440;2023-05-10T04:37:40;10.05;;;6.72;;
32106;SDS011;18622;51.998;10.440;2023-05-10T04:40:09;7.97;;;6.25;;
32106;SDS011;18622;51.998;10.440;2023-05-10T04:42:37;6.87;;;5.80;;
32106;SDS011;18622;51.998;10.440;2023-05-10T04:45:09;9.37;;;6.23;;
32106;SDS011;18622;51.998;10.440;2023-05-10T04:47:37;8.87;;;5.63;;
32106;SDS011;18622;51.998;10.440;2023-05-10T04:50:05;7.73;;;6.10;;
32106;SDS011;18622;51.998;10.440;2023-05-10T04:52:33;7.47;;;5.35;;
32106;SDS011;18622;51.998;10.440;2023-05-10T04:55:01;10.20;;;6.83;;
32106;SDS011;18622;51.998;10.440;2023-05-10T04:57:28;6.70;;;5.33;;
32106;SDS011;18622;51.998;10.440;2023-05-10T04:59:56;10.23;;;5.87;;
32106;SDS011;18622;51.998;10.440;2023-05-10T05:02:24;9.43;;;5.93;;
32106;SDS011;18622;51.998;10.440;2023-05-10T05:04:52;10.00;;;5.43;;
32106;SDS011;18622;51.998;10.440;2023-05-10T05:07:20;7.23;;;6.03;;
32106;SDS011;18622;51.998;10.440;2023-05-10T05:09:48;7.90;;;6.28;;
32106;SDS011;18622;51.998;10.440;2023-05-10T05:12:15;8.90;;;6.43;;
32106;SDS011;18622;51.998;10.440;2023-05-10T05:14:43;9.27;;;5.70;;
32106;SDS011;18622;51.998;10.440;2023-05-10T05:17:11;8.10;;;5.30;;
32106;SDS011;18622;51.998;10.440;2023-05-10T05:19:39;7.90;;;5.70;;
32106;SDS011;18622;51.998;10.440;2023-05-10T05:22:07;8.43;;;5.87;;
32106;SDS011;18622;51.998;10.440;2023-05-10T05:24:35;7.53;;;5.47;;
32106;SDS011;18622;51.998;10.440;2023-05-10T05:27:05;7.23;;;5.27;;
32106;SDS011;18622;51.998;10.440;2023-05-10T05:29:33;8.67;;;6.07;;
32106;SDS011;18622;51.998;10.440;2023-05-10T14:45:54;1.40;;;1.22;;
32106;SDS011;18622;51.998;10.440;2023-05-10T14:48:22;4.47;;;0.80;;
32106;SDS011;18622;51.998;10.440;2023-05-10T14:50:50;43.80;;;2.83;;
32106;SDS011;18622;51.998;10.440;2023-05-10T14:53:18;1.55;;;0.90;;
32106;SDS011;18622;51.998;10.440;2023-05-10T14:55:46;1.37;;;0.70;;
32106;SDS011;18622;51.998;10.440;2023-05-10T14:58:13;0.93;;;0.70;;
32106;SDS011;18622;51.998;10.440;2023-05-10T15:00:41;2.30;;;0.60;;
32106;SDS011;18622;51.998;10.440;2023-05-10T15:03:09;1.00;;;0.60;;
32106;SDS011;18622;51.998;10.440;2023-05-10T15:05:37;3.03;;;0.73;;
32106;SDS011;18622;51.998;10.440;2023-05-10T15:08:05;1.83;;;0.67;;
32106;SDS011;18622;51.998;10.440;2023-05-10T15:10:33;1.87;;;0.90;;
32106;SDS011;18622;51.998;10.440;2023-05-10T15:13:00;0.73;;;0.70;;
32106;SDS011;18622;51.998;10.440;2023-05-10T15:15:28;1.53;;;1.10;;
32106;SDS011;18622;51.998;10.440;2023-05-10T15:17:56;1.67;;;0.87;;
32106;SDS011;18622;51.998;10.440;2023-05-10T15:20:24;2.07;;;0.80;;
32106;SDS011;18622;51.998;10.440;2023-05-10T15:22:52;1.60;;;1.00;;
32106;SDS011;18622;51.998;10.440;2023-05-10T15:25:20;3.33;;;0.97;;
32106;SDS011;18622;51.998;10.440;2023-05-10T15:27:49;0.80;;;0.80;;
32106;SDS011;18622;51.998;10.440;2023-05-10T15:30:17;1.23;;;0.67;;
32106;SDS011;18622;51.998;10.440;2023-05-10T15:32:45;3.13;;;1.00;;
32106;SDS011;18622;51.998;10.440;2023-05-10T15:35:12;3.17;;;0.83;;
32106;SDS011;18622;51.998;10.440;2023-05-10T15:37:41;3.65;;;0.95;;
32106;SDS011;18622;51.998;10.440;2023-05-10T15:40:09;4.40;;;1.40;;
32106;SDS011;18622;51.998;10.440;2023-05-10T15:42:37;0.93;;;0.80;;
32106;SDS011;18622;51.998;10.440;2023-05-10T15:45:05;4.83;;;0.80;;
32106;SDS011;18622;51.998;10.440;2023-05-10T15:47:33;6.12;;;0.72;;
32106;SDS011;18622;51.998;10.440;2023-05-10T15:50:00;1.00;;;0.83;;
32106;SDS011;18622;51.998;10.440;2023-05-10T15:52:28;0.90;;;0.77;;
32106;SDS011;18622;51.998;10.440;2023-05-10T15:54:56;0.70;;;0.70;;
32106;SDS011;18622;51.998;10.440;2023-05-10T15:57:24;2.27;;;0.93;;
32106;SDS011;18622;51.998;10.440;2023-05-10T15:59:51;1.80;;;0.80;;
32106;SDS011;18622;51.998;10.440;2023-05-10T16:02:19;0.73;;;0.70;;
32106;SDS011;18622;51.998;10.440;2023-05-10T16:04:47;1.57;;;0.70;;
32106;SDS011;18622;51.998;10.440;2023-05-10T16:07:16;0.82;;;0.80;;
32106;SDS011;18622;51.998;10.440;2023-05-10T16:09:44;1.53;;;0.90;;
32106;SDS011;18622;51.998;10.440;2023-05-10T16:12:11;1.37;;;0.73;;
32106;SDS011;18622;51.998;10.440;2023-05-10T16:14:39;1.43;;;0.80;;
32106;SDS011;18622;51.998;10.440;2023-05-10T16:17:07;1.93;;;0.80;;
32106;SDS011;18622;51.998;10.440;2023-05-10T16:19:35;1.73;;;1.20;;
32106;SDS011;18622;51.998;10.440;2023-05-10T16:22:03;2.67;;;1.40;;
32106;SDS011;18622;51.998;10.440;2023-05-10T16:24:31;2.20;;;1.30;;
32106;SDS011;18622;51.998;10.440;2023-05-10T16:26:59;5.27;;;2.10;;
32106;SDS011;18622;51.998;10.440;2023-05-10T16:29:27;4.57;;;2.67;;
32106;SDS011;18622;51.998;10.440;2023-05-10T16:31:56;1.67;;;1.02;;
32106;SDS011;18622;51.998;10.440;2023-05-10T16:34:23;2.23;;;1.60;;
32106;SDS011;18622;51.998;10.440;2023-05-10T16:36:51;5.43;;;1.40;;
32106;SDS011;18622;51.998;10.440;2023-05-10T16:39:19;3.37;;;1.50;;
32106;SDS011;18622;51.998;10.440;2023-05-10T16:41:47;2.00;;;1.20;;
32106;SDS011;18622;51.998;10.440;2023-05-10T16:44:15;4.57;;;1.47;;
32106;SDS011;18622;51.998;10.440;2023-05-10T16:46:43;3.63;;;2.13;;
32106;SDS011;18622;51.998;10.440;2023-05-10T16:49:11;6.17;;;1.10;;
32106;SDS011;18622;51.998;10.440;2023-05-10T16:51:39;5.23;;;1.40;;
32106;SDS011;18622;51.998;10.440;2023-05-10T16:54:06;2.87;;;1.80;;
32106;SDS011;18622;51.998;10.440;2023-05-10T16:56:34;1.17;;;1.07;;
32106;SDS011;18622;51.998;10.440;2023-05-10T16:59:02;1.70;;;0.90;;
32106;SDS011;18622;51.998;10.440;2023-05-10T17:01:30;2.90;;;0.93;;
32106;SDS011;18622;51.998;10.440;2023-05-10T17:03:59;1.57;;;1.12;;
32106;SDS011;18622;51.998;10.440;2023-05-10T17:06:27;2.03;;;1.00;;
32106;SDS011;18622;51.998;10.440;2023-05-10T17:08:55;1.97;;;1.10;;
32106;SDS011;18622;51.998;10.440;2023-05-10T17:11:23;1.30;;;0.90;;
32106;SDS011;18622;51.998;10.440;2023-05-10T17:13:50;2.70;;;1.10;;
32106;SDS011;18622;51.998;10.440;2023-05-10T17:16:18;3.00;;;1.00;;
32106;SDS011;18622;51.998;10.440;2023-05-10T17:18:46;1.40;;;1.10;;
32106;SDS011;18622;51.998;10.440;2023-05-10T17:21:14;2.80;;;1.20;;
32106;SDS011;18622;51.998;10.440;2023-05-10T17:23:42;1.53;;;1.20;;
32106;SDS011;18622;51.998;10.440;2023-05-10T17:26:10;2.10;;;1.27;;
32106;SDS011;18622;51.998;10.440;2023-05-10T17:28:38;1.80;;;1.60;;
32106;SDS011;18622;51.998;10.440;2023-05-10T17:31:05;2.23;;;1.50;;
32106;SDS011;18622;51.998;10.440;2023-05-10T17:33:34;3.47;;;1.23;;
32106;SDS011;18622;51.998;10.440;2023-05-10T17:36:02;3.00;;;1.50;;
32106;SDS011;18622;51.998;10.440;2023-05-10T17:38:30;3.07;;;1.20;;
32106;SDS011;18622;51.998;10.440;2023-05-10T17:40:58;5.53;;;1.80;;
32106;SDS011;18622;51.998;10.440;2023-05-10T17:43:26;5.77;;;1.30;;
32106;SDS011;18622;51.998;10.440;2023-05-10T17:45:54;1.47;;;1.37;;
32106;SDS011;18622;51.998;10.440;2023-05-10T17:48:22;2.03;;;1.37;;
32106;SDS011;18622;51.998;10.440;2023-05-10T17:50:50;2.47;;;1.37;;
32106;SDS011;18622;51.998;10.440;2023-05-10T17:53:18;2.00;;;1.50;;
32106;SDS011;18622;51.998;10.440;2023-05-10T17:55:45;3.03;;;2.07;;
32106;SDS011;18622;51.998;10.440;2023-05-10T17:58:15;3.40;;;3.08;;
32106;SDS011;18622;51.998;10.440;2023-05-10T18:00:43;3.13;;;2.20;;
32106;SDS011;18622;51.998;10.440;2023-05-10T18:03:11;10.37;;;2.90;;
32106;SDS011;18622;51.998;10.440;2023-05-10T18:05:39;3.13;;;1.83;;
32106;SDS011;18622;51.998;10.440;2023-05-10T18:08:06;7.53;;;3.57;;
32106;SDS011;18622;51.998;10.440;2023-05-10T18:10:37;3.67;;;2.80;;
32106;SDS011;18622;51.998;10.440;2023-05-10T18:13:05;7.35;;;2.67;;
32106;SDS011;18622;51.998;10.440;2023-05-10T18:15:33;9.70;;;5.20;;
32106;SDS011;18622;51.998;10.440;2023-05-10T18:18:01;4.77;;;3.37;;
32106;SDS011;18622;51.998;10.440;2023-05-10T18:20:31;6.45;;;3.45;;
32106;SDS011;18622;51.998;10.440;2023-05-10T18:22:59;4.70;;;4.20;;
32106;SDS011;18622;51.998;10.440;2023-05-10T18:25:27;5.30;;;3.43;;
32106;SDS011;18622;51.998;10.440;2023-05-10T18:27:55;13.67;;;8.13;;
32106;SDS011;18622;51.998;10.440;2023-05-10T18:30:23;8.60;;;4.17;;
32106;SDS011;18622;51.998;10.440;2023-05-10T18:32:51;3.27;;;2.97;;
32106;SDS011;18622;51.998;10.440;2023-05-10T18:35:19;5.77;;;3.00;;
32106;SDS011;18622;51.998;10.440;2023-05-10T18:37:47;5.13;;;3.20;;
32106;SDS011;18622;51.998;10.440;2023-05-10T18:40:15;8.40;;;4.93;;
32106;SDS011;18622;51.998;10.440;2023-05-10T18:45:15;4.33;;;3.08;;
32106;SDS011;18622;51.998;10.440;2023-05-10T18:47:43;3.83;;;2.53;;
32106;SDS011;18622;51.998;10.440;2023-05-10T18:50:10;5.87;;;3.17;;
32106;SDS011;18622;51.998;10.440;2023-05-10T18:52:38;5.87;;;3.13;;
32106;SDS011;18622;51.998;10.440;2023-05-10T18:55:06;5.00;;;3.10;;
32106;SDS011;18622;51.998;10.440;2023-05-10T18:57:34;7.47;;;4.63;;
32106;SDS011;18622;51.998;10.440;2023-05-10T19:00:04;10.85;;;4.35;;
32106;SDS011;18622;51.998;10.440;2023-05-10T19:02:38;4.33;;;3.30;;
32106;SDS011;18622;51.998;10.440;2023-05-10T19:05:06;5.83;;;3.47;;
32106;SDS011;18622;51.998;10.440;2023-05-10T19:07:34;5.30;;;3.27;;
32106;SDS011;18622;51.998;10.440;2023-05-10T19:10:02;2.93;;;2.50;;
32106;SDS011;18622;51.998;10.440;2023-05-10T19:12:30;4.10;;;2.90;;
32106;SDS011;18622;51.998;10.440;2023-05-10T19:14:58;4.70;;;2.87;;
32106;SDS011;18622;51.998;10.440;2023-05-10T19:17:26;8.43;;;3.23;;
32106;SDS011;18622;51.998;10.440;2023-05-10T19:19:54;4.37;;;3.03;;
32106;SDS011;18622;51.998;10.440;2023-05-10T19:22:21;5.83;;;3.10;;
32106;SDS011;18622;51.998;10.440;2023-05-10T19:24:49;5.90;;;2.77;;
32106;SDS011;18622;51.998;10.440;2023-05-10T19:27:17;5.00;;;3.00;;
32106;SDS011;18622;51.998;10.440;2023-05-10T19:29:45;3.00;;;2.70;;
32106;SDS011;18622;51.998;10.440;2023-05-10T19:32:13;2.93;;;2.67;;
32106;SDS011;18622;51.998;10.440;2023-05-10T19:34:41;4.43;;;2.80;;
32106;SDS011;18622;51.998;10.440;2023-05-10T19:37:08;3.10;;;2.73;;
32106;SDS011;18622;51.998;10.440;2023-05-10T19:39:37;6.33;;;2.77;;
32106;SDS011;18622;51.998;10.440;2023-05-10T19:42:05;4.47;;;2.80;;
32106;SDS011;18622;51.998;10.440;2023-05-10T19:44:32;5.87;;;3.40;;
32106;SDS011;18622;51.998;10.440;2023-05-10T19:47:00;9.07;;;3.20;;
32106;SDS011;18622;51.998;10.440;2023-05-10T19:49:30;3.33;;;3.00;;
32106;SDS011;18622;51.998;10.440;2023-05-10T19:51:58;10.20;;;2.87;;
32106;SDS011;18622;51.998;10.440;2023-05-10T19:54:25;9.23;;;2.80;;
32106;SDS011;18622;51.998;10.440;2023-05-10T19:56:53;6.53;;;3.07;;
32106;SDS011;18622;51.998;10.440;2023-05-10T19:59:21;5.27;;;3.03;;
32106;SDS011;18622;51.998;10.440;2023-05-10T20:01:49;4.97;;;3.17;;
32106;SDS011;18622;51.998;10.440;2023-05-10T20:04:16;5.00;;;3.10;;
32106;SDS011;18622;51.998;10.440;2023-05-10T20:06:44;7.77;;;3.47;;
32106;SDS011;18622;51.998;10.440;2023-05-10T20:09:12;7.50;;;3.90;;
32106;SDS011;18622;51.998;10.440;2023-05-10T20:11:40;9.83;;;4.47;;
32106;SDS011;18622;51.998;10.440;2023-05-10T20:14:08;8.50;;;4.43;;
32106;SDS011;18622;51.998;10.440;2023-05-10T20:16:36;11.80;;;5.17;;
32106;SDS011;18622;51.998;10.440;2023-05-10T20:19:04;4.07;;;3.07;;
32106;SDS011;18622;51.998;10.440;2023-05-10T20:21:31;8.40;;;2.90;;
32106;SDS011;18622;51.998;10.440;2023-05-10T20:23:59;7.60;;;3.33;;
32106;SDS011;18622;51.998;10.440;2023-05-10T20:26:27;3.47;;;2.63;;
32106;SDS011;18622;51.998;10.440;2023-05-10T20:28:55;8.70;;;3.23;;
32106;SDS011;18622;51.998;10.440;2023-05-10T20:31:23;4.63;;;3.13;;
32106;SDS011;18622;51.998;10.440;2023-05-10T20:33:51;6.13;;;3.30;;
32106;SDS011;18622;51.998;10.440;2023-05-10T20:36:19;7.57;;;3.30;;
32106;SDS011;18622;51.998;10.440;2023-05-10T20:38:46;9.87;;;4.17;;
32106;SDS011;18622;51.998;10.440;2023-05-10T20:41:14;8.00;;;3.87;;
32106;SDS011;18622;51.998;10.440;2023-05-10T20:43:42;4.60;;;3.40;;
